Burtonfield Tanna, Vanuatu
Current Conditions -  °F | °C
As of 8:00 AM on Monday 24 Nov 2014 (Local Time) from NVVV Reporting Station
Broken Clouds Broken Clouds  
Wind Chill: 77°   Ceiling: 2000
Heat Index: 78°   Visibility: 6mi
Dew Point: 72°   Wind: 12mph
Humidity: 83%   Direction: 100°E
Pressure: 29.94"   Gusts: NA
Location:  19.53°S, 169.25°E
Report Text: NVVV 232100Z 10010KT 9999 BKN020 25/22 Q1014 RMK RESH
Loading
Personal Weather Stations






























Interactive Weather Map New forecast layout! Learn more

10-Day Weather Forecast

Advertisements
Track Severe Weather on mobile